Time;durP1;ratioP1;P1;durP2;ratioP2;P2;SDS_P1;SDS_P2;PMS_P1;PMS_P2;Temp;Humidity;BMP_temperature;BMP_pressure;BME280_temperature;BME280_humidity;BME280_pressure;Samples;Min_cycle;Max_cycle;Signal;HPM_P1;HPM_P2
2021/09/28 00:01:46;;;;;;;6.57;1.88;;;;;;;17.11;63.45;101795.38;5034013;28;20053;-60
2021/09/28 00:04:13;;;;;;;7.55;2.08;;;;;;;17.17;64.02;101796.88;5035452;28;20060;-61
2021/09/28 00:06:41;;;;;;;9.05;2.22;;;;;;;17.18;63.60;101792.91;5035587;28;20425;-66
2021/09/28 00:09:08;;;;;;;9.63;2.17;;;;;;;17.10;63.77;101796.56;5033717;28;20069;-66
2021/09/28 00:11:35;;;;;;;8.73;1.83;;;;;;;16.99;63.53;101800.81;5035718;28;20492;-66
2021/09/28 00:14:03;;;;;;;9.18;2.63;;;;;;;16.93;63.62;101812.47;5035329;28;20073;-67
2021/09/28 00:16:30;;;;;;;7.40;1.85;;;;;;;16.96;63.54;101809.84;5035809;28;20068;-67
2021/09/28 00:18:58;;;;;;;8.68;2.10;;;;;;;16.95;64.60;101807.34;5033695;28;20056;-67
2021/09/28 00:21:26;;;;;;;5.47;2.10;;;;;;;16.93;65.00;101812.47;5035519;28;20056;-67
2021/09/28 00:23:54;;;;;;;8.63;2.13;;;;;;;16.91;65.18;101818.38;5034911;28;20056;-68
2021/09/28 00:26:21;;;;;;;5.25;1.80;;;;;;;16.92;65.10;101816.38;5034143;28;20072;-67
2021/09/28 00:28:48;;;;;;;6.53;2.05;;;;;;;16.88;64.70;101823.78;5032927;28;20061;-66
2021/09/28 00:31:16;;;;;;;8.23;2.42;;;;;;;16.78;65.39;101817.38;5033247;28;20053;-67
2021/09/28 00:33:43;;;;;;;6.00;1.95;;;;;;;16.95;64.85;101819.31;5034898;28;20061;-60
2021/09/28 00:36:11;;;;;;;8.35;2.30;;;;;;;16.91;64.68;101823.94;5033681;28;20073;-60
2021/09/28 00:38:38;;;;;;;8.02;2.28;;;;;;;17.11;64.47;101825.19;5034217;28;20045;-66
2021/09/28 00:41:06;;;;;;;6.93;1.85;;;;;;;17.04;64.74;101824.88;5054511;28;20444;-66
2021/09/28 00:43:58;;;;;;;11.63;2.30;;;;;;;17.26;64.44;101825.47;5053876;28;20407;-67
2021/09/28 00:46:25;;;;;;;9.82;2.30;;;;;;;17.26;64.05;101821.91;5043746;28;20068;-66
2021/09/28 00:48:56;;;;;;;8.73;2.20;;;;;;;17.15;64.23;101821.44;5015614;28;20053;-67
2021/09/28 00:51:23;;;;;;;5.40;2.20;;;;;;;17.12;64.44;101818.50;5014878;28;20057;-66
2021/09/28 00:53:53;;;;;;;12.38;2.60;;;;;;;17.10;64.31;101812.44;5025064;28;20057;-66
2021/09/28 00:56:21;;;;;;;6.37;2.10;;;;;;;17.30;64.47;101806.97;5034103;28;20068;-65
2021/09/28 00:58:48;;;;;;;4.88;1.80;;;;;;;17.25;63.95;101809.09;5035360;28;20303;-67
2021/09/28 01:01:16;;;;;;;5.57;1.80;;;;;;;17.15;62.98;101806.69;5034475;28;20543;-60
2021/09/28 01:03:44;;;;;;;9.57;2.00;;;;;;;17.12;64.10;101812.91;5034626;28;20060;-59
2021/09/28 01:06:11;;;;;;;7.43;1.60;;;;;;;17.08;63.81;101811.94;5034666;28;20045;-60
2021/09/28 01:08:38;;;;;;;4.93;1.88;;;;;;;16.96;64.72;101814.59;5016858;28;20157;-60
2021/09/28 01:11:05;;;;;;;7.07;2.17;;;;;;;17.12;64.76;101812.91;5032862;28;20049;-61
2021/09/28 01:13:33;;;;;;;5.72;1.85;;;;;;;17.15;64.81;101815.03;5032817;28;20539;-64
2021/09/28 01:16:00;;;;;;;8.38;1.92;;;;;;;17.22;64.29;101810.59;5034713;28;20145;-59
2021/09/28 01:18:29;;;;;;;6.72;2.00;;;;;;;17.14;64.85;101808.63;5033531;28;20080;-60
2021/09/28 01:20:57;;;;;;;6.73;2.10;;;;;;;17.14;64.89;101813.41;5036634;28;20056;-59
2021/09/28 01:23:25;;;;;;;7.00;2.28;;;;;;;17.22;65.17;101809.78;5040705;28;20049;-60
2021/09/28 01:25:52;;;;;;;7.60;2.10;;;;;;;17.07;64.82;101804.75;5039896;28;20049;-67
2021/09/28 01:28:20;;;;;;;6.40;1.90;;;;;;;16.92;64.71;101805.25;5040785;28;20495;-66
2021/09/28 01:30:47;;;;;;;6.30;1.98;;;;;;;17.01;65.61;101812.44;5023157;28;20053;-67
2021/09/28 01:33:15;;;;;;;7.47;2.33;;;;;;;16.93;65.31;101812.47;5040598;28;20064;-60
2021/09/28 01:35:42;;;;;;;5.30;2.00;;;;;;;16.91;65.93;101810.00;5039794;28;20408;-60
2021/09/28 01:38:10;;;;;;;8.55;2.30;;;;;;;16.79;65.74;101799.53;5039428;28;20049;-66
2021/09/28 01:40:37;;;;;;;6.10;2.05;;;;;;;16.75;66.29;101800.53;5039878;28;20645;-66
2021/09/28 01:43:13;;;;;;;6.38;2.13;;;;;;;16.78;66.32;101805.44;5039539;28;20057;-67
2021/09/28 01:45:41;;;;;;;7.32;1.92;;;;;;;16.93;66.20;101792.97;5040658;28;20049;-67
2021/09/28 01:48:09;;;;;;;8.48;1.98;;;;;;;16.72;66.08;101796.44;5040176;28;20053;-66
2021/09/28 01:50:36;;;;;;;5.07;1.75;;;;;;;16.78;66.83;101795.13;5040602;28;20106;-60
2021/09/28 01:53:04;;;;;;;11.27;2.25;;;;;;;16.62;66.47;101788.41;5022975;28;20045;-59
2021/09/28 01:55:32;;;;;;;5.70;1.70;;;;;;;16.75;66.68;101792.97;5037620;28;20058;-59
2021/09/28 01:57:59;;;;;;;8.57;1.75;;;;;;;16.70;66.22;101789.56;5023214;28;20077;-59
2021/09/28 02:00:27;;;;;;;6.57;2.00;;;;;;;16.75;66.50;101786.63;5040293;28;20052;-61
2021/09/28 02:02:55;;;;;;;7.93;1.80;;;;;;;16.73;66.61;101783.34;5040912;28;20060;-59
2021/09/28 02:05:22;;;;;;;8.10;2.25;;;;;;;16.68;66.36;101780.72;5039569;28;20064;-60
2021/09/28 02:07:50;;;;;;;5.25;1.80;;;;;;;16.73;66.17;101786.13;5039317;28;20049;-60
2021/09/28 02:10:18;;;;;;;6.20;1.67;;;;;;;16.77;66.32;101775.97;5039016;28;20050;-59
2021/09/28 02:12:45;;;;;;;6.78;2.00;;;;;;;16.78;65.74;101777.59;5038745;28;20448;-67
2021/09/28 02:15:12;;;;;;;5.18;1.95;;;;;;;16.62;65.92;101773.69;5040848;28;20049;-66
2021/09/28 02:17:40;;;;;;;8.20;2.00;;;;;;;16.74;65.81;101773.84;5040821;28;20056;-66
2021/09/28 02:20:08;;;;;;;8.35;1.98;;;;;;;16.58;66.26;101767.97;5040820;28;20045;-66
2021/09/28 02:22:36;;;;;;;6.97;1.98;;;;;;;16.72;65.78;101763.03;5040301;28;20049;-62
2021/09/28 02:25:07;;;;;;;7.93;1.95;;;;;;;16.67;66.19;101760.44;5040915;28;20354;-66
2021/09/28 02:27:35;;;;;;;6.18;2.00;;;;;;;16.68;65.73;101766.81;5039428;28;20057;-66
2021/09/28 02:30:04;;;;;;;8.95;1.88;;;;;;;16.77;65.86;101762.88;5040448;28;20051;-66
2021/09/28 02:32:31;;;;;;;4.57;1.92;;;;;;;16.75;65.75;101758.78;5037836;28;20065;-60
2021/09/28 02:34:59;;;;;;;7.25;2.20;;;;;;;16.87;65.81;101767.28;5003839;28;20061;-59
2021/09/28 02:37:27;;;;;;;4.47;1.83;;;;;;;16.68;65.64;101758.47;5037208;28;20057;-60
2021/09/28 02:39:54;;;;;;;8.35;2.00;;;;;;;16.61;66.97;101763.72;5049744;28;20052;-61
2021/09/28 02:42:21;;;;;;;5.22;1.90;;;;;;;16.45;66.54;101766.16;5049785;28;20060;-60
2021/09/28 02:44:51;;;;;;;6.28;1.70;;;;;;;16.46;66.84;101767.81;5036804;28;20049;-61
2021/09/28 02:47:19;;;;;;;7.38;1.83;;;;;;;16.59;67.40;101749.31;5037525;28;20053;-61
2021/09/28 02:49:46;;;;;;;6.55;2.20;;;;;;;16.61;66.73;101749.81;5036950;28;20045;-61
2021/09/28 02:52:13;;;;;;;7.22;2.30;;;;;;;16.55;66.74;101749.16;5035969;28;20056;-67
2021/09/28 02:54:41;;;;;;;7.18;1.83;;;;;;;16.70;66.81;101745.84;5033868;28;20057;-68
2021/09/28 02:57:08;;;;;;;4.80;2.00;;;;;;;16.81;66.60;101738.81;5036758;28;20060;-67
2021/09/28 02:59:37;;;;;;;8.40;1.95;;;;;;;16.70;66.57;101739.50;5037673;28;20053;-67
2021/09/28 03:02:04;;;;;;;5.57;2.03;;;;;;;16.51;66.56;101741.81;5037176;28;20037;-67
2021/09/28 03:04:32;;;;;;;8.45;2.00;;;;;;;16.41;67.34;101744.88;5036826;28;20076;-66
2021/09/28 03:06:59;;;;;;;5.65;2.33;;;;;;;16.49;67.79;101744.09;5036638;28;20088;-66
2021/09/28 03:09:26;;;;;;;5.53;2.15;;;;;;;16.53;66.84;101745.06;5036851;28;20049;-67
2021/09/28 03:11:53;;;;;;;6.53;1.98;;;;;;;16.57;67.13;101746.03;5036434;28;20065;-66
2021/09/28 03:14:22;;;;;;;10.38;2.22;;;;;;;16.50;67.33;101752.09;5035464;28;20057;-67
2021/09/28 03:16:50;;;;;;;8.93;2.20;;;;;;;16.52;67.43;101744.25;5036331;28;20497;-67
2021/09/28 03:19:19;;;;;;;10.05;2.20;;;;;;;16.63;66.77;101747.53;5036608;28;20049;-66
2021/09/28 03:21:47;;;;;;;10.35;2.33;;;;;;;16.45;66.98;101746.69;5036345;28;20090;-67
2021/09/28 03:24:15;;;;;;;5.03;1.83;;;;;;;16.49;67.60;101749.66;5036598;28;20052;-67
2021/09/28 03:26:42;;;;;;;7.15;2.55;;;;;;;16.51;67.92;101742.59;5035252;28;20057;-67
2021/09/28 03:29:10;;;;;;;6.82;2.05;;;;;;;16.41;67.77;101745.69;5036512;28;20049;-67
2021/09/28 03:31:37;;;;;;;5.75;2.13;;;;;;;16.37;68.18;101747.47;5034814;28;20378;-65
2021/09/28 03:34:04;;;;;;;8.60;2.25;;;;;;;16.42;68.10;101747.31;5036563;28;20057;-59
2021/09/28 03:36:32;;;;;;;7.82;2.38;;;;;;;16.56;67.47;101747.19;5034344;28;20053;-60
2021/09/28 03:38:59;;;;;;;6.72;2.38;;;;;;;16.59;67.77;101746.53;5041348;28;20049;-59
2021/09/28 03:41:26;;;;;;;5.25;2.20;;;;;;;16.40;67.45;101737.69;5055070;28;20044;-59
2021/09/28 03:43:53;;;;;;;6.03;2.15;;;;;;;16.63;67.22;101742.75;5036103;28;20503;-60
2021/09/28 03:46:21;;;;;;;5.25;2.10;;;;;;;16.55;67.24;101739.97;5034701;28;20053;-67
2021/09/28 03:48:48;;;;;;;8.63;1.90;;;;;;;16.34;67.73;101733.41;5036380;28;20050;-69
2021/09/28 03:51:16;;;;;;;7.78;2.50;;;;;;;16.41;67.72;101730.97;5036536;28;20057;-66
2021/09/28 03:53:43;;;;;;;4.80;1.92;;;;;;;16.51;67.33;101725.91;5035266;28;20045;-68
2021/09/28 03:56:10;;;;;;;7.82;1.90;;;;;;;16.54;66.95;101728.06;5033330;28;20049;-60
2021/09/28 03:58:37;;;;;;;13.40;2.33;;;;;;;16.11;68.30;101729.97;5035620;28;20053;-62
2021/09/28 04:01:05;;;;;;;9.82;2.10;;;;;;;16.20;68.59;101735.53;5036115;28;20060;-67
2021/09/28 04:03:32;;;;;;;8.45;2.10;;;;;;;16.30;67.92;101733.25;5035471;28;20053;-66
2021/09/28 04:05:59;;;;;;;6.22;1.85;;;;;;;16.17;68.36;101738.97;5035408;28;20083;-58
2021/09/28 04:08:27;;;;;;;8.60;2.03;;;;;;;16.02;68.81;101743.06;5035392;28;20049;-66
2021/09/28 04:10:54;;;;;;;6.63;2.20;;;;;;;16.00;69.55;101745.34;5034599;28;20045;-68
2021/09/28 04:13:21;;;;;;;5.25;1.98;;;;;;;16.16;69.28;101748.47;5035205;28;20056;-66
2021/09/28 04:15:49;;;;;;;7.18;1.98;;;;;;;16.04;69.39;101749.09;5035471;28;20554;-67
2021/09/28 04:18:16;;;;;;;10.57;1.65;;;;;;;15.86;69.31;101743.84;5035114;28;20053;-67
2021/09/28 04:20:44;;;;;;;8.80;2.47;;;;;;;16.01;69.32;101744.19;5035131;28;20053;-61
2021/09/28 04:23:15;;;;;;;6.88;1.83;;;;;;;16.06;68.84;101752.38;5034445;28;20053;-61
2021/09/28 04:25:43;;;;;;;6.65;2.08;;;;;;;16.19;68.05;101751.41;5033996;28;20064;-66
2021/09/28 04:28:11;;;;;;;7.72;1.90;;;;;;;16.02;68.29;101739.47;5035486;28;20042;-66
2021/09/28 04:30:38;;;;;;;6.03;2.40;;;;;;;16.42;69.05;101746.50;5035089;28;20045;-60
2021/09/28 04:33:06;;;;;;;7.60;2.33;;;;;;;16.11;67.84;101749.44;5033591;28;20544;-61
2021/09/28 04:35:33;;;;;;;7.57;1.80;;;;;;;16.12;68.16;101742.75;5033846;28;20046;-67
2021/09/28 04:38:01;;;;;;;6.07;2.25;;;;;;;16.08;68.39;101743.69;5035211;28;20492;-60
2021/09/28 04:40:28;;;;;;;6.18;1.90;;;;;;;16.15;68.66;101750.44;5043876;28;20042;-60
2021/09/28 04:42:55;;;;;;;10.43;1.92;;;;;;;16.11;68.04;101746.66;5017230;28;20057;-59
2021/09/28 04:45:22;;;;;;;10.50;2.28;;;;;;;16.08;68.43;101740.94;5034931;28;20054;-61
2021/09/28 04:47:50;;;;;;;7.88;2.33;;;;;;;16.19;68.24;101736.69;5035048;28;20080;-59
2021/09/28 04:50:17;;;;;;;6.20;2.28;;;;;;;16.12;67.76;101733.56;5034623;28;20140;-61
2021/09/28 04:52:44;;;;;;;8.50;2.10;;;;;;;16.17;67.97;101738.97;5032777;28;20064;-61
2021/09/28 04:55:12;;;;;;;6.63;2.10;;;;;;;16.22;68.28;101747.16;5034511;28;20049;-60
2021/09/28 04:57:39;;;;;;;8.80;1.90;;;;;;;16.45;67.65;101743.91;5031723;28;20405;-60
2021/09/28 05:00:08;;;;;;;10.85;1.95;;;;;;;16.46;67.28;101756.69;5033247;28;20057;-60
2021/09/28 05:02:35;;;;;;;6.72;1.90;;;;;;;16.35;66.40;101757.31;5034126;28;20057;-61
2021/09/28 05:05:04;;;;;;;10.38;2.38;;;;;;;16.32;66.69;101752.41;5032315;28;20065;-60
2021/09/28 05:07:31;;;;;;;8.35;1.83;;;;;;;16.64;66.12;101743.56;5034669;28;20060;-61
2021/09/28 05:09:58;;;;;;;7.43;2.10;;;;;;;16.62;65.43;101745.88;5035038;28;20057;-61
2021/09/28 05:12:26;;;;;;;8.40;1.80;;;;;;;16.56;66.01;101744.41;5034528;28;20041;-61
2021/09/28 05:14:56;;;;;;;8.98;2.33;;;;;;;16.44;66.06;101744.22;5034842;28;20068;-60
2021/09/28 05:17:24;;;;;;;9.98;2.22;;;;;;;16.50;66.18;101746.53;5034622;28;20046;-61
2021/09/28 05:19:51;;;;;;;6.13;2.08;;;;;;;16.50;66.06;101748.50;5034785;28;20060;-61
2021/09/28 05:22:21;;;;;;;6.72;1.92;;;;;;;16.34;66.23;101755.66;5034690;28;20042;-60
2021/09/28 05:24:53;;;;;;;12.02;2.63;;;;;;;16.35;66.79;101754.53;5033097;28;20045;-60
2021/09/28 05:27:21;;;;;;;9.95;2.50;;;;;;;16.33;66.78;101756.81;5033027;28;20045;-60
2021/09/28 05:29:48;;;;;;;10.43;3.00;;;;;;;16.23;67.95;101759.94;5033119;28;20405;-61
2021/09/28 05:32:15;;;;;;;9.13;2.13;;;;;;;16.42;66.51;101761.22;5034423;28;20635;-61
2021/09/28 05:34:43;;;;;;;9.85;2.20;;;;;;;16.16;67.02;101754.81;5035328;28;20057;-61
2021/09/28 05:37:10;;;;;;;7.82;2.10;;;;;;;16.16;67.36;101748.47;5033524;28;20046;-61
2021/09/28 05:39:37;;;;;;;8.07;2.28;;;;;;;16.34;67.15;101734.25;5033544;28;20045;-60
2021/09/28 05:42:05;;;;;;;9.68;2.20;;;;;;;16.42;66.57;101724.28;5032546;28;20416;-67
2021/09/28 05:44:32;;;;;;;12.45;2.30;;;;;;;16.43;66.56;101717.56;5027843;28;20056;-68
2021/09/28 05:47:00;;;;;;;5.30;1.77;;;;;;;16.36;66.97;101718.06;5014767;28;20050;-66
2021/09/28 05:49:27;;;;;;;8.98;2.22;;;;;;;16.22;67.03;101714.63;5014770;28;20054;-67
2021/09/28 05:51:56;;;;;;;8.50;2.10;;;;;;;16.25;66.52;101715.94;5015111;28;20080;-61
2021/09/28 05:54:24;;;;;;;8.52;2.60;;;;;;;16.37;67.08;101711.34;5024964;28;20064;-59
2021/09/28 05:56:53;;;;;;;10.77;2.33;;;;;;;16.45;70.11;101715.25;5032871;28;20049;-60
2021/09/28 05:59:20;;;;;;;12.93;2.60;;;;;;;16.31;71.71;101723.78;5032373;28;20060;-62
2021/09/28 06:01:49;;;;;;;11.25;2.30;;;;;;;16.28;74.79;101723.63;5032783;28;20050;-61
2021/09/28 06:04:17;;;;;;;11.48;2.60;;;;;;;16.28;75.75;101734.75;5031862;28;20053;-60
2021/09/28 06:06:45;;;;;;;9.57;2.95;;;;;;;16.29;76.63;101720.50;5034198;28;20041;-60
2021/09/28 06:09:12;;;;;;;9.05;2.55;;;;;;;16.43;76.59;101729.50;5036830;28;20049;-60
2021/09/28 06:11:41;;;;;;;14.75;2.95;;;;;;;16.36;75.72;101720.84;5033132;28;20053;-61
2021/09/28 06:14:08;;;;;;;15.85;4.47;;;;;;;16.29;74.28;101728.03;5036678;28;20056;-61
2021/09/28 06:16:35;;;;;;;12.70;3.08;;;;;;;16.34;74.25;101733.41;5036231;28;20056;-59
2021/09/28 06:19:03;;;;;;;16.08;5.97;;;;;;;16.44;73.48;101735.88;5035483;28;20053;-61
2021/09/28 06:21:30;;;;;;;18.75;7.18;;;;;;;16.46;71.91;101728.88;5037541;28;20045;-60
2021/09/28 06:23:57;;;;;;;11.35;4.05;;;;;;;16.63;71.38;101734.41;5035182;28;20060;-63
2021/09/28 06:26:24;;;;;;;8.63;2.53;;;;;;;16.61;70.87;101731.16;5034066;28;20068;-63
2021/09/28 06:28:52;;;;;;;13.88;4.93;;;;;;;16.49;70.88;101730.97;5036253;28;20056;-64
2021/09/28 06:31:19;;;;;;;15.60;4.45;;;;;;;16.48;67.68;101736.88;5034910;28;20049;-63
2021/09/28 06:33:46;;;;;;;11.85;4.53;;;;;;;16.03;68.90;101741.91;5034564;28;20041;-64
2021/09/28 06:36:14;;;;;;;18.02;4.28;;;;;;;16.13;67.73;101747.16;5036640;28;20081;-62
2021/09/28 06:38:42;;;;;;;16.63;5.85;;;;;;;16.28;66.66;101745.84;5038649;28;20448;-62
2021/09/28 06:41:10;;;;;;;31.20;17.58;;;;;;;16.06;66.16;101744.03;5017913;28;20052;-63
2021/09/28 06:43:37;;;;;;;18.38;7.97;;;;;;;15.86;65.68;101743.84;5036200;28;20064;-63
2021/09/28 06:46:09;;;;;;;16.35;4.45;;;;;;;16.11;66.75;101745.84;5036692;28;20054;-64
2021/09/28 06:48:36;;;;;;;16.00;6.32;;;;;;;16.11;66.06;101731.97;5036941;28;20068;-63
2021/09/28 06:51:04;;;;;;;13.77;3.67;;;;;;;15.72;65.58;101735.66;5036349;28;20515;-69
2021/09/28 06:53:32;;;;;;;8.77;3.30;;;;;;;15.53;67.27;101732.31;5034515;28;20084;-69
2021/09/28 06:56:00;;;;;;;14.10;3.58;;;;;;;15.93;67.23;101731.13;5018537;28;20057;-67
2021/09/28 06:58:28;;;;;;;11.18;3.55;;;;;;;16.09;66.37;101725.91;5036243;28;20045;-68
2021/09/28 07:00:55;;;;;;;15.20;3.75;;;;;;;16.18;66.34;101718.41;5035837;28;20061;-69
2021/09/28 07:03:22;;;;;;;12.30;3.30;;;;;;;16.37;65.46;101735.56;5034945;28;20400;-68
2021/09/28 07:05:50;;;;;;;10.55;2.90;;;;;;;16.53;65.00;101736.72;5035357;28;20045;-71
2021/09/28 07:08:18;;;;;;;16.85;3.60;;;;;;;16.68;63.83;101733.44;5036742;28;20484;-68
2021/09/28 07:10:45;;;;;;;10.60;3.13;;;;;;;16.58;63.64;101728.22;5036465;28;20049;-70
2021/09/28 07:13:13;;;;;;;15.30;3.40;;;;;;;16.74;63.42;101724.56;5035382;28;20057;-68
2021/09/28 07:15:40;;;;;;;14.70;3.05;;;;;;;16.73;63.28;101724.91;5035729;28;20060;-68
2021/09/28 07:18:08;;;;;;;9.48;3.03;;;;;;;16.81;62.88;101724.06;5035722;28;20057;-67
2021/09/28 07:20:37;;;;;;;9.48;3.03;;;;;;;16.99;62.94;101725.66;5035885;28;20041;-68
2021/09/28 07:23:05;;;;;;;9.75;3.30;;;;;;;17.13;62.13;101725.44;5035405;28;20057;-68
2021/09/28 07:25:32;;;;;;;12.00;3.15;;;;;;;17.15;61.58;101729.56;5036397;28;20416;-67
2021/09/28 07:28:00;;;;;;;12.15;3.00;;;;;;;17.14;61.49;101724.31;5036039;28;20060;-67
2021/09/28 07:30:31;;;;;;;9.13;2.45;;;;;;;17.19;61.07;101715.78;5035393;28;20049;-67
2021/09/28 07:33:00;;;;;;;10.43;3.13;;;;;;;17.10;61.90;101718.59;5035620;28;20064;-68
2021/09/28 07:35:27;;;;;;;9.27;3.47;;;;;;;17.19;61.27;101713.00;5035904;28;20056;-68
2021/09/28 07:37:54;;;;;;;10.95;3.00;;;;;;;17.41;60.81;101712.72;5018305;28;20503;-68
2021/09/28 07:40:22;;;;;;;15.70;3.88;;;;;;;17.63;59.75;101718.03;5034989;28;20045;-67
2021/09/28 07:42:50;;;;;;;8.93;3.03;;;;;;;17.51;60.01;101707.63;5035706;28;20064;-68
2021/09/28 07:45:18;;;;;;;13.13;3.45;;;;;;;17.43;60.24;101711.25;5034628;28;20046;-67
2021/09/28 07:47:45;;;;;;;10.00;3.13;;;;;;;17.49;60.13;101712.72;5035332;28;20080;-68
2021/09/28 07:50:13;;;;;;;17.02;4.32;;;;;;;17.45;60.46;101708.13;5035153;28;20048;-68
2021/09/28 07:52:40;;;;;;;17.15;3.90;;;;;;;17.47;60.01;101709.44;5035165;28;20050;-63
2021/09/28 07:55:08;;;;;;;16.33;3.83;;;;;;;17.36;59.99;101722.09;5034290;28;20049;-63
2021/09/28 07:57:36;;;;;;;14.75;3.90;;;;;;;17.48;60.05;101713.06;5018043;28;20057;-62
2021/09/28 08:00:06;;;;;;;10.27;3.55;;;;;;;17.50;60.14;101722.72;5034242;28;20053;-62
2021/09/28 08:02:40;;;;;;;17.38;6.05;;;;;;;17.71;59.58;101715.19;5034631;28;20052;-63
2021/09/28 08:05:09;;;;;;;18.42;9.07;;;;;;;17.65;59.62;101711.00;5036386;28;20532;-63
2021/09/28 08:07:38;;;;;;;19.30;6.75;;;;;;;17.70;59.58;101721.94;5035142;28;20045;-64
2021/09/28 08:10:11;;;;;;;15.52;4.32;;;;;;;17.82;59.12;101710.88;5034069;28;20053;-64
2021/09/28 08:12:39;;;;;;;14.45;4.05;;;;;;;17.75;59.00;101705.03;5037281;28;20393;-64
2021/09/28 08:15:07;;;;;;;22.27;4.50;;;;;;;17.89;59.02;101713.13;5034943;28;20050;-62
2021/09/28 08:17:37;;;;;;;14.73;3.53;;;;;;;18.10;58.54;101713.16;5044592;28;20053;-63
2021/09/28 08:20:08;;;;;;;15.98;4.05;;;;;;;17.97;58.59;101724.22;5001428;28;20054;-63
2021/09/28 08:22:38;;;;;;;13.02;4.03;;;;;;;17.87;58.55;101726.56;5033405;28;20045;-65
2021/09/28 08:25:15;;;;;;;17.05;4.22;;;;;;;17.74;59.54;101727.66;5035344;28;20053;-63
2021/09/28 08:30:29;;;;;;;12.25;3.58;;;;;;;17.88;59.53;101717.91;5032775;28;20049;-64
2021/09/28 08:32:56;;;;;;;14.55;3.35;;;;;;;18.04;59.42;101720.06;5033682;28;20507;-63
2021/09/28 08:35:24;;;;;;;14.70;3.80;;;;;;;17.97;59.35;101715.06;5032854;28;20060;-63
2021/09/28 08:37:51;;;;;;;15.52;4.55;;;;;;;18.04;59.70;101720.06;5032882;28;20064;-63
2021/09/28 08:40:19;;;;;;;12.52;3.35;;;;;;;17.88;60.08;101719.88;5036755;28;20045;-63
2021/09/28 08:42:46;;;;;;;15.95;4.18;;;;;;;18.01;60.20;101723.56;5032510;28;20057;-64
2021/09/28 08:45:14;;;;;;;16.35;4.43;;;;;;;18.11;59.97;101720.34;5033022;28;20397;-70
2021/09/28 08:47:43;;;;;;;18.98;4.28;;;;;;;18.05;59.75;101727.28;5034553;28;20062;-68
2021/09/28 08:50:19;;;;;;;14.32;3.70;;;;;;;17.59;60.35;101720.69;5035041;28;20342;-62
2021/09/28 08:52:49;;;;;;;18.05;3.53;;;;;;;17.61;62.31;101721.16;5016594;28;20052;-67
2021/09/28 08:55:23;;;;;;;13.73;4.00;;;;;;;17.91;61.48;101728.38;5034433;28;20053;-69
2021/09/28 08:58:11;;;;;;;11.88;3.22;;;;;;;18.28;60.48;101726.63;5034699;28;20053;-63
2021/09/28 09:00:38;;;;;;;17.10;3.60;;;;;;;18.30;60.09;101723.47;5029910;28;20053;-64
2021/09/28 09:03:06;;;;;;;23.60;4.13;;;;;;;18.23;60.06;101723.22;5033677;28;20501;-64
2021/09/28 09:05:46;;;;;;;17.80;4.25;;;;;;;18.32;60.04;101730.38;5034425;28;20420;-63
2021/09/28 09:08:14;;;;;;;26.33;3.67;;;;;;;18.72;59.09;101725.09;5031934;28;20049;-63
2021/09/28 09:10:41;;;;;;;11.32;3.35;;;;;;;18.47;59.08;101726.16;5032540;28;20153;-63
2021/09/28 09:13:09;;;;;;;21.45;3.47;;;;;;;18.25;59.53;101718.94;5034479;28;20050;-64
2021/09/28 09:15:36;;;;;;;21.58;3.75;;;;;;;18.34;59.89;101719.66;5033880;28;20041;-64
2021/09/28 09:18:05;;;;;;;16.40;4.13;;;;;;;18.50;59.49;101722.66;5033904;28;20065;-63
2021/09/28 09:20:42;;;;;;;15.25;4.15;;;;;;;18.64;59.09;101717.59;5033704;28;20050;-63
2021/09/28 09:23:22;;;;;;;11.63;3.78;;;;;;;18.69;59.15;101714.63;5033167;28;20053;-68
2021/09/28 09:26:13;;;;;;;19.70;3.88;;;;;;;18.68;58.94;101707.41;5032386;28;20053;-67
2021/09/28 09:28:54;;;;;;;13.85;3.67;;;;;;;18.81;58.33;101704.28;5031928;28;20064;-67
2021/09/28 09:31:35;;;;;;;13.95;3.80;;;;;;;18.66;57.92;101701.34;5031685;28;20046;-67
2021/09/28 09:34:19;;;;;;;13.18;3.05;;;;;;;18.88;58.27;101689.78;5033792;28;20049;-67
2021/09/28 09:36:58;;;;;;;11.05;3.13;;;;;;;19.03;57.17;101694.69;5033242;28;20057;-68
2021/09/28 09:39:26;;;;;;;12.55;3.78;;;;;;;19.06;56.81;101691.19;5035131;28;20049;-67
2021/09/28 09:42:04;;;;;;;8.20;2.72;;;;;;;19.35;55.78;101688.25;5034269;28;20072;-67
2021/09/28 09:44:32;;;;;;;17.17;3.33;;;;;;;19.35;55.70;101688.25;5036938;28;20041;-68
2021/09/28 09:47:00;;;;;;;12.95;3.00;;;;;;;19.25;56.32;101682.28;5036192;28;20057;-67
2021/09/28 09:49:35;;;;;;;12.05;3.20;;;;;;;19.63;55.19;101674.38;5037803;28;20041;-68
2021/09/28 09:52:10;;;;;;;11.90;3.53;;;;;;;19.58;53.67;101669.81;5037280;28;20049;-68
2021/09/28 09:54:38;;;;;;;12.45;2.42;;;;;;;19.60;53.89;101673.09;5037790;28;20056;-68
2021/09/28 09:57:07;;;;;;;14.60;2.55;;;;;;;19.30;54.06;101662.50;5037726;28;20053;-68
2021/09/28 09:59:35;;;;;;;12.02;3.08;;;;;;;19.33;55.06;101656.22;5037414;28;20056;-67
2021/09/28 10:02:03;;;;;;;13.55;2.72;;;;;;;19.53;54.59;101660.84;5037074;28;20053;-66
2021/09/28 10:04:31;;;;;;;12.90;2.42;;;;;;;19.73;54.35;101648.72;5037477;28;20042;-66
2021/09/28 10:07:01;;;;;;;12.20;2.45;;;;;;;19.76;53.09;101653.59;5036832;28;20057;-67
2021/09/28 10:09:41;;;;;;;11.00;2.40;;;;;;;19.95;51.25;101653.78;5037462;28;20405;-68
2021/09/28 10:12:10;;;;;;;12.38;3.13;;;;;;;19.97;51.83;101662.66;5019791;28;20538;-68
2021/09/28 10:14:42;;;;;;;17.88;7.07;;;;;;;20.00;50.74;101647.94;5034498;28;20048;-69
2021/09/28 10:17:12;;;;;;;11.88;2.90;;;;;;;19.94;50.54;101649.38;5036058;28;20049;-68
2021/09/28 10:19:40;;;;;;;;;;;;;;;20.06;52.38;101650.16;5037639;28;20049;-64
2021/09/28 10:22:33;;;;;;;13.25;2.80;;;;;;;19.97;52.01;101657.88;5037153;28;19921;-65
2021/09/28 10:25:19;;;;;;;12.02;2.60;;;;;;;20.02;52.84;101660.44;5037129;28;20381;-66
2021/09/28 10:27:48;;;;;;;9.70;2.10;;;;;;;20.23;51.83;101651.88;5035122;28;20061;-66
2021/09/28 10:30:30;;;;;;;13.15;2.25;;;;;;;20.12;50.87;101657.13;5036483;28;20051;-69
2021/09/28 10:33:22;;;;;;;11.75;2.22;;;;;;;20.00;51.28;101662.75;5033930;28;20076;-68
2021/09/28 10:36:13;;;;;;;13.52;2.33;;;;;;;20.18;51.37;101663.31;5033129;28;20054;-68
2021/09/28 10:38:41;;;;;;;8.82;2.47;;;;;;;20.20;51.08;101651.78;5039601;28;20393;-68
2021/09/28 10:41:30;;;;;;;7.78;2.15;;;;;;;20.30;50.91;101654.88;5048405;28;20155;-69
2021/09/28 10:44:26;;;;;;;12.95;2.83;;;;;;;20.36;49.53;101653.47;5031576;28;20060;-69
2021/09/28 10:46:53;;;;;;;15.82;3.60;;;;;;;20.27;50.20;101651.97;5036694;28;20057;-69
2021/09/28 10:49:21;;;;;;;13.50;6.22;;;;;;;20.30;50.42;101656.84;5037364;28;20060;-63
2021/09/28 10:51:49;;;;;;;11.68;4.38;;;;;;;20.37;49.61;101655.06;5037146;28;20049;-64
2021/09/28 10:54:16;;;;;;;15.23;3.53;;;;;;;20.40;48.90;101651.56;5030467;28;20045;-64
2021/09/28 10:56:50;;;;;;;11.45;2.95;;;;;;;19.97;49.77;101655.09;5035396;28;20056;-63
2021/09/28 10:59:18;;;;;;;16.23;4.35;;;;;;;20.35;48.73;101648.19;5036256;28;20057;-64
2021/09/28 11:02:08;;;;;;;12.10;2.90;;;;;;;19.95;49.13;101653.78;5018518;28;20065;-62
2021/09/28 11:04:35;;;;;;;14.95;4.80;;;;;;;19.88;49.36;101650.78;5035555;28;20432;-63
2021/09/28 11:07:10;;;;;;;13.82;4.32;;;;;;;20.01;49.00;101641.22;5036235;28;20045;-68
2021/09/28 11:09:45;;;;;;;11.65;3.10;;;;;;;20.14;48.11;101638.00;5035446;28;20497;-64
2021/09/28 11:12:14;;;;;;;13.10;4.00;;;;;;;20.11;48.76;101623.91;5033346;28;20099;-63
2021/09/28 11:14:41;;;;;;;13.05;3.90;;;;;;;20.26;48.34;101634.34;5034319;28;20615;-69
2021/09/28 11:17:14;;;;;;;13.25;4.68;;;;;;;20.54;47.92;101623.97;5033909;28;20053;-72
2021/09/28 11:19:42;;;;;;;14.70;6.63;;;;;;;20.27;47.83;101633.22;5035145;28;20124;-63
2021/09/28 11:22:16;;;;;;;25.95;12.02;;;;;;;20.15;46.79;101624.84;5015672;28;20050;-64
2021/09/28 11:24:43;;;;;;;20.13;8.82;;;;;;;20.55;47.58;101621.97;5015833;28;20045;-64
2021/09/28 11:27:10;;;;;;;11.23;3.40;;;;;;;20.38;46.13;101620.31;5015467;28;20045;-64
2021/09/28 11:29:41;;;;;;;10.75;3.63;;;;;;;20.39;47.65;101613.56;5017939;28;20065;-63
2021/09/28 11:32:10;;;;;;;10.85;3.17;;;;;;;20.63;46.67;101610.63;5031241;28;20061;-71
2021/09/28 11:34:40;;;;;;;15.77;3.03;;;;;;;20.79;46.44;101607.81;5035699;28;20401;-64